Time;durP1;ratioP1;P1;durP2;ratioP2;P2;SDS_P1;SDS_P2;PMS_P1;PMS_P2;Temp;Humidity;BMP_temperature;BMP_pressure;BME280_temperature;BME280_humidity;BME280_pressure;Samples;Min_cycle;Max_cycle;Signal;HPM_P1;HPM_P2
2022/05/06 00:02:11;;;;;;;0.10;0.10;;;;;;;;;;4984214;28;20223;-71
2022/05/06 00:04:38;;;;;;;0.00;0.00;;;;;;;;;;4979369;28;20221;-70
2022/05/06 00:07:07;;;;;;;0.00;0.00;;;;;;;;;;4966045;28;20714;-71
2022/05/06 00:09:34;;;;;;;0.10;0.10;;;;;;;;;;4986126;28;20193;-70
2022/05/06 00:12:03;;;;;;;0.10;0.10;;;;;;;;;;4965740;28;20255;-69
2022/05/06 00:14:30;;;;;;;0.10;0.10;;;;;;;;;;4984413;28;20722;-69
2022/05/06 00:16:57;;;;;;;0.10;0.10;;;;;;;;;;4975305;28;20210;-70
2022/05/06 00:19:25;;;;;;;0.00;0.00;;;;;;;;;;4982915;28;20208;-71
2022/05/06 00:21:52;;;;;;;0.10;0.10;;;;;;;;;;4965970;28;20209;-71
2022/05/06 00:24:21;;;;;;;0.10;0.10;;;;;;;;;;4983988;28;20276;-70
2022/05/06 00:26:48;;;;;;;0.10;0.10;;;;;;;;;;4978862;28;20197;-71
2022/05/06 00:29:16;;;;;;;0.10;0.10;;;;;;;;;;4982592;28;20197;-70
2022/05/06 00:31:43;;;;;;;0.00;0.00;;;;;;;;;;4989387;28;20280;-69
2022/05/06 00:34:11;;;;;;;0.10;0.10;;;;;;;;;;4984319;28;20233;-71
2022/05/06 00:36:38;;;;;;;0.10;0.10;;;;;;;;;;4984907;28;20193;-70
2022/05/06 00:39:06;;;;;;;0.00;0.00;;;;;;;;;;4985549;28;20204;-70
2022/05/06 00:41:35;;;;;;;0.10;0.10;;;;;;;;;;4981114;28;20198;-71
2022/05/06 00:44:03;;;;;;;0.10;0.10;;;;;;;;;;4984543;28;20276;-70
2022/05/06 00:46:30;;;;;;;0.10;0.10;;;;;;;;;;4980335;28;20205;-68
2022/05/06 00:48:58;;;;;;;0.00;0.00;;;;;;;;;;4983990;28;20229;-69
2022/05/06 00:51:25;;;;;;;0.10;0.10;;;;;;;;;;4982794;28;20221;-69
2022/05/06 00:53:55;;;;;;;0.00;0.00;;;;;;;;;;4980059;28;20254;-70
2022/05/06 00:56:24;;;;;;;0.10;0.10;;;;;;;;;;4979392;28;20209;-69
2022/05/06 00:58:54;;;;;;;0.10;0.10;;;;;;;;;;4983353;28;20197;-71
2022/05/06 01:01:21;;;;;;;0.10;0.10;;;;;;;;;;4964466;28;20213;-70
2022/05/06 01:03:49;;;;;;;0.10;0.10;;;;;;;;;;4959624;28;20613;-70
2022/05/06 01:06:17;;;;;;;0.10;0.10;;;;;;;;;;4980778;28;20238;-70
2022/05/06 01:08:51;;;;;;;0.10;0.10;;;;;;;;;;4970014;28;20197;-71
2022/05/06 01:11:19;;;;;;;0.10;0.10;;;;;;;;;;4968319;28;20220;-70
2022/05/06 01:13:47;;;;;;;0.10;0.10;;;;;;;;;;4983434;28;20281;-70
2022/05/06 01:16:21;;;;;;;0.10;0.10;;;;;;;;;;4967804;28;20209;-70
2022/05/06 01:18:57;;;;;;;0.10;0.10;;;;;;;;;;4983522;28;20243;-70
2022/05/06 01:21:25;;;;;;;0.10;0.10;;;;;;;;;;4965234;28;20270;-71
2022/05/06 01:23:54;;;;;;;0.10;0.10;;;;;;;;;;4982690;28;20225;-70
2022/05/06 01:26:21;;;;;;;0.10;0.10;;;;;;;;;;4965996;28;20236;-70
2022/05/06 01:28:50;;;;;;;0.20;0.20;;;;;;;;;;4981509;28;20193;-70
2022/05/06 01:31:21;;;;;;;0.10;0.10;;;;;;;;;;4964977;28;20233;-70
2022/05/06 01:33:54;;;;;;;0.10;0.10;;;;;;;;;;4976361;28;20228;-69
2022/05/06 01:36:24;;;;;;;0.10;0.10;;;;;;;;;;4981034;28;20198;-69
2022/05/06 01:38:52;;;;;;;0.00;0.00;;;;;;;;;;4981588;28;20208;-71
2022/05/06 01:41:22;;;;;;;0.10;0.10;;;;;;;;;;4966327;28;20201;-71
2022/05/06 01:44:10;;;;;;;0.10;0.10;;;;;;;;;;4981805;28;20550;-70
2022/05/06 01:46:39;;;;;;;0.13;0.13;;;;;;;;;;4981492;28;20205;-70
2022/05/06 01:49:11;;;;;;;0.10;0.10;;;;;;;;;;4977095;28;20314;-70
2022/05/06 01:51:40;;;;;;;0.10;0.10;;;;;;;;;;4981542;28;20607;-71
2022/05/06 01:54:11;;;;;;;0.10;0.10;;;;;;;;;;4974418;28;20280;-70
2022/05/06 01:56:42;;;;;;;0.10;0.10;;;;;;;;;;4980454;28;20247;-70
2022/05/06 01:59:09;;;;;;;0.10;0.10;;;;;;;;;;4965226;28;20201;-70
2022/05/06 02:01:37;;;;;;;0.10;0.10;;;;;;;;;;4980573;28;20259;-70
2022/05/06 02:06:51;;;;;;;0.10;0.10;;;;;;;;;;4981455;28;20193;-71
2022/05/06 02:09:22;;;;;;;0.10;0.10;;;;;;;;;;4966327;28;20198;-70
2022/05/06 02:12:01;;;;;;;0.10;0.10;;;;;;;;;;4958994;28;20237;-70
2022/05/06 02:14:51;;;;;;;0.10;0.10;;;;;;;;;;4979001;28;20299;-71
2022/05/06 02:17:19;;;;;;;0.10;0.10;;;;;;;;;;4980944;28;20220;-70
2022/05/06 02:20:15;;;;;;;0.10;0.10;;;;;;;;;;4978676;28;20209;-70
2022/05/06 02:23:06;;;;;;;0.10;0.10;;;;;;;;;;4969864;28;20339;-69
2022/05/06 02:25:40;;;;;;;0.10;0.10;;;;;;;;;;4983706;28;20895;-70
2022/05/06 02:28:14;;;;;;;0.10;0.10;;;;;;;;;;4962854;28;20244;-71
2022/05/06 02:33:34;;;;;;;0.10;0.10;;;;;;;;;;4957312;28;20201;-69
2022/05/06 02:36:07;;;;;;;0.10;0.10;;;;;;;;;;4979549;28;20284;-69
2022/05/06 02:38:36;;;;;;;0.10;0.10;;;;;;;;;;4980343;28;20269;-69
2022/05/06 02:41:04;;;;;;;0.10;0.10;;;;;;;;;;4965917;28;20280;-71
2022/05/06 02:43:42;;;;;;;0.10;0.10;;;;;;;;;;4979772;28;20221;-71
2022/05/06 02:46:10;;;;;;;0.10;0.10;;;;;;;;;;4963105;28;20201;-72
2022/05/06 02:48:37;;;;;;;0.10;0.10;;;;;;;;;;4960337;28;20213;-71
2022/05/06 02:51:08;;;;;;;0.10;0.10;;;;;;;;;;4964350;28;20678;-73
2022/05/06 02:53:38;;;;;;;0.10;0.10;;;;;;;;;;4982392;28;20194;-71
2022/05/06 02:56:06;;;;;;;0.10;0.10;;;;;;;;;;4985974;28;20205;-69
2022/05/06 02:58:45;;;;;;;0.10;0.10;;;;;;;;;;4981662;28;20197;-70
2022/05/06 03:01:13;;;;;;;0.10;0.10;;;;;;;;;;4982014;28;20217;-71
2022/05/06 03:03:42;;;;;;;0.10;0.10;;;;;;;;;;4979948;28;20229;-71
2022/05/06 03:06:18;;;;;;;0.10;0.10;;;;;;;;;;4983273;28;20215;-71
2022/05/06 03:08:47;;;;;;;0.10;0.10;;;;;;;;;;4986618;28;20202;-71
2022/05/06 03:11:18;;;;;;;0.10;0.10;;;;;;;;;;4968720;28;20213;-69
2022/05/06 03:13:54;;;;;;;0.10;0.10;;;;;;;;;;4984349;28;20315;-71
2022/05/06 03:16:25;;;;;;;0.10;0.10;;;;;;;;;;4982162;28;20209;-70
2022/05/06 03:18:53;;;;;;;0.10;0.10;;;;;;;;;;4982913;28;20303;-71
2022/05/06 03:21:20;;;;;;;0.10;0.10;;;;;;;;;;4965447;28;20201;-70
2022/05/06 03:23:50;;;;;;;0.10;0.10;;;;;;;;;;4971832;28;20225;-70
2022/05/06 03:26:17;;;;;;;0.10;0.10;;;;;;;;;;4984333;28;20213;-70
2022/05/06 03:28:46;;;;;;;0.10;0.10;;;;;;;;;;4966049;28;20208;-71
2022/05/06 03:31:18;;;;;;;0.10;0.10;;;;;;;;;;4969965;28;20301;-69
2022/05/06 03:33:56;;;;;;;0.10;0.10;;;;;;;;;;4975518;28;20668;-72
2022/05/06 03:36:29;;;;;;;0.10;0.10;;;;;;;;;;4977896;28;20628;-71
2022/05/06 03:39:04;;;;;;;0.10;0.10;;;;;;;;;;4966696;28;20193;-71
2022/05/06 03:41:38;;;;;;;0.10;0.10;;;;;;;;;;4988034;28;20228;-71
2022/05/06 03:44:07;;;;;;;0.10;0.10;;;;;;;;;;4990578;28;20672;-71
2022/05/06 03:46:39;;;;;;;0.10;0.10;;;;;;;;;;4983022;28;20198;-70
2022/05/06 03:49:07;;;;;;;0.10;0.10;;;;;;;;;;4968943;28;20668;-69
2022/05/06 03:51:34;;;;;;;0.10;0.10;;;;;;;;;;4985575;28;20655;-69
2022/05/06 03:54:16;;;;;;;0.10;0.10;;;;;;;;;;4984427;28;20604;-70
2022/05/06 03:56:43;;;;;;;0.10;0.10;;;;;;;;;;4976014;28;20662;-70
2022/05/06 03:59:11;;;;;;;0.10;0.10;;;;;;;;;;4972753;28;20666;-70
2022/05/06 04:01:43;;;;;;;0.10;0.10;;;;;;;;;;4971243;28;20198;-71
2022/05/06 04:04:18;;;;;;;0.10;0.10;;;;;;;;;;4970527;28;20667;-70
2022/05/06 04:06:47;;;;;;;0.10;0.10;;;;;;;;;;4990334;28;20726;-71
2022/05/06 04:09:15;;;;;;;0.10;0.10;;;;;;;;;;4970823;28;20632;-72
2022/05/06 04:11:43;;;;;;;0.20;0.20;;;;;;;;;;4975482;28;20212;-72
2022/05/06 04:14:11;;;;;;;0.10;0.10;;;;;;;;;;4989711;28;20220;-71
2022/05/06 04:16:43;;;;;;;0.10;0.10;;;;;;;;;;4969889;28;20213;-70
2022/05/06 04:19:24;;;;;;;0.20;0.20;;;;;;;;;;4973142;28;20209;-70
2022/05/06 04:24:49;;;;;;;0.10;0.10;;;;;;;;;;4969213;28;20213;-72
2022/05/06 04:27:17;;;;;;;0.10;0.10;;;;;;;;;;4965864;28;20296;-71
2022/05/06 04:29:46;;;;;;;0.10;0.10;;;;;;;;;;4981643;28;20205;-71
2022/05/06 04:32:15;;;;;;;0.10;0.10;;;;;;;;;;4965551;28;20243;-73
2022/05/06 04:34:42;;;;;;;0.10;0.10;;;;;;;;;;4973442;28;20285;-75
2022/05/06 04:37:10;;;;;;;0.10;0.10;;;;;;;;;;4968142;28;20271;-75
2022/05/06 04:39:42;;;;;;;0.10;0.10;;;;;;;;;;4983664;28;20714;-78
2022/05/06 04:42:10;;;;;;;0.10;0.10;;;;;;;;;;4980609;28;20198;-74
2022/05/06 04:44:40;;;;;;;0.10;0.10;;;;;;;;;;4982568;28;20221;-74
2022/05/06 04:47:07;;;;;;;0.03;0.03;;;;;;;;;;4967925;28;20599;-75
2022/05/06 04:49:38;;;;;;;0.10;0.10;;;;;;;;;;4987769;28;20213;-75
2022/05/06 04:52:06;;;;;;;0.10;0.10;;;;;;;;;;4971736;28;20231;-74
2022/05/06 04:54:34;;;;;;;0.10;0.10;;;;;;;;;;4989354;28;20225;-71
2022/05/06 04:57:02;;;;;;;0.10;0.10;;;;;;;;;;4990603;28;20201;-75
2022/05/06 04:59:34;;;;;;;0.10;0.10;;;;;;;;;;4981960;28;20201;-74
2022/05/06 05:02:02;;;;;;;0.10;0.10;;;;;;;;;;4986144;28;20267;-73
2022/05/06 05:04:30;;;;;;;0.10;0.10;;;;;;;;;;4985278;28;20280;-72
2022/05/06 05:07:16;;;;;;;0.10;0.10;;;;;;;;;;4959732;28;20201;-73
2022/05/06 05:09:53;;;;;;;0.00;0.00;;;;;;;;;;4982404;28;20208;-72
2022/05/06 05:12:24;;;;;;;0.00;0.00;;;;;;;;;;4965151;28;20279;-74
2022/05/06 05:14:53;;;;;;;0.10;0.10;;;;;;;;;;4977908;28;20314;-73
2022/05/06 05:17:23;;;;;;;0.00;0.00;;;;;;;;;;4963791;28;20193;-75
2022/05/06 05:19:52;;;;;;;0.10;0.10;;;;;;;;;;4981101;28;20303;-73
2022/05/06 05:22:22;;;;;;;0.10;0.10;;;;;;;;;;4964781;28;20196;-74
2022/05/06 05:24:52;;;;;;;0.10;0.10;;;;;;;;;;4981053;28;20228;-73
2022/05/06 05:27:19;;;;;;;0.00;0.00;;;;;;;;;;4960384;28;20208;-73
2022/05/06 05:29:47;;;;;;;0.10;0.10;;;;;;;;;;4981665;28;20204;-74
2022/05/06 05:32:18;;;;;;;0.10;0.10;;;;;;;;;;4955986;28;20229;-73
2022/05/06 05:34:47;;;;;;;0.00;0.00;;;;;;;;;;4978391;28;20272;-73
2022/05/06 05:37:18;;;;;;;0.00;0.00;;;;;;;;;;4966498;28;20201;-73
2022/05/06 05:39:48;;;;;;;0.03;0.03;;;;;;;;;;4982155;28;20205;-74
2022/05/06 05:42:21;;;;;;;0.10;0.10;;;;;;;;;;4980530;28;20229;-74
2022/05/06 05:50:23;;;;;;;0.10;0.10;;;;;;;;;;4975364;28;20197;-74
2022/05/06 05:52:51;;;;;;;0.00;0.00;;;;;;;;;;4982897;28;20217;-73
2022/05/06 05:55:20;;;;;;;0.00;0.00;;;;;;;;;;4981683;28;20331;-73
2022/05/06 05:57:49;;;;;;;0.00;0.00;;;;;;;;;;4981605;28;20681;-73
2022/05/06 06:00:18;;;;;;;0.00;0.00;;;;;;;;;;4966614;28;20212;-73
2022/05/06 06:02:53;;;;;;;0.00;0.00;;;;;;;;;;4978713;28;20268;-74
2022/05/06 06:05:20;;;;;;;0.10;0.10;;;;;;;;;;4962630;28;20228;-73
2022/05/06 06:07:48;;;;;;;0.00;0.00;;;;;;;;;;4967331;28;20197;-73
2022/05/06 06:10:18;;;;;;;0.00;0.00;;;;;;;;;;4968483;28;20206;-74
2022/05/06 06:12:48;;;;;;;0.00;0.00;;;16.90;99.90;;;;;;4982515;28;20225;-73
2022/05/06 06:15:16;;;;;;;0.00;0.00;;;17.60;99.90;;;;;;4963223;28;20233;-74
2022/05/06 06:17:44;;;;;;;0.07;0.07;;;17.80;99.90;;;;;;4981187;28;20201;-74
2022/05/06 06:20:13;;;;;;;0.00;0.00;;;;;;;;;;4985363;28;20210;-73
2022/05/06 06:22:45;;;;;;;0.00;0.00;;;;;;;;;;4977151;28;20225;-74
2022/05/06 06:25:13;;;;;;;0.03;0.03;;;17.90;99.90;;;;;;4964429;28;20236;-74
2022/05/06 06:27:41;;;;;;;0.00;0.00;;;;;;;;;;4982801;28;20256;-74
2022/05/06 06:30:13;;;;;;;0.00;0.00;;;18.50;99.90;;;;;;4970081;28;20320;-73
2022/05/06 06:32:41;;;;;;;0.00;0.00;;;;;;;;;;4982166;28;20220;-74
2022/05/06 06:35:11;;;;;;;0.00;0.00;;;;;;;;;;4979932;28;20272;-73
2022/05/06 06:37:52;;;;;;;0.00;0.00;;;18.80;99.90;;;;;;4985360;28;20754;-74
2022/05/06 06:40:23;;;;;;;0.00;0.00;;;;;;;;;;4980276;28;20267;-74
2022/05/06 06:42:51;;;;;;;0.00;0.00;;;19.50;99.90;;;;;;4965196;28;20197;-75
2022/05/06 06:45:30;;;;;;;0.00;0.00;;;19.90;99.90;;;;;;4981894;28;20251;-73
2022/05/06 06:48:12;;;;;;;0.00;0.00;;;20.10;99.90;;;;;;4980963;28;20197;-73
2022/05/06 06:50:45;;;;;;;0.00;0.00;;;20.20;99.90;;;;;;4965460;28;20240;-73
2022/05/06 06:53:31;;;;;;;0.00;0.00;;;20.20;99.90;;;;;;4981647;28;20248;-73
2022/05/06 06:55:58;;;;;;;0.00;0.00;;;20.30;99.90;;;;;;4988087;28;20209;-74
2022/05/06 06:58:26;;;;;;;0.00;0.00;;;20.50;99.90;;;;;;4980043;28;20296;-73
2022/05/06 07:00:54;;;;;;;0.00;0.00;;;;;;;;;;4981813;28;20221;-74
2022/05/06 07:03:21;;;;;;;0.00;0.00;;;20.90;99.90;;;;;;4981740;28;20670;-74
2022/05/06 07:14:04;;;;;;;0.00;0.00;;;;;;;;;;4976902;28;20312;-72
2022/05/06 07:16:33;;;;;;;0.00;0.00;;;;;;;;;;4962999;28;20205;-73
2022/05/06 07:19:00;;;;;;;0.00;0.00;;;21.30;99.90;;;;;;4980225;28;20221;-74
2022/05/06 07:21:27;;;;;;;0.00;0.00;;;21.50;99.90;;;;;;4978728;28;20264;-73
2022/05/06 07:23:54;;;;;;;0.00;0.00;;;21.50;99.90;;;;;;4980240;28;20263;-74
2022/05/06 07:26:21;;;;;;;0.00;0.00;;;21.60;99.90;;;;;;5011144;22;20342;-76
2022/05/06 07:28:49;;;;;;;0.00;0.00;;;21.60;99.90;;;;;;5002469;28;20259;-75
2022/05/06 07:31:16;;;;;;;0.00;0.00;;;21.70;99.90;;;;;;5000740;28;20201;-76
2022/05/06 07:33:45;;;;;;;0.00;0.00;;;;;;;;;;4996885;28;20219;-76
2022/05/06 07:36:12;;;;;;;0.00;0.00;;;21.80;99.90;;;;;;5002699;28;20200;-76
2022/05/06 07:38:39;;;;;;;0.00;0.00;;;21.80;99.90;;;;;;5004444;28;20204;-76
2022/05/06 07:41:06;;;;;;;0.00;0.00;;;21.70;99.90;;;;;;5004277;28;20287;-76
2022/05/06 07:43:34;;;;;;;0.00;0.00;;;21.80;99.90;;;;;;5006900;28;20235;-76
2022/05/06 07:46:01;;;;;;;0.00;0.00;;;21.80;99.90;;;;;;5003658;28;20230;-76
2022/05/06 07:48:28;;;;;;;0.00;0.00;;;;;;;;;;4993592;23;20593;-72
2022/05/06 07:50:58;;;;;;;0.00;0.00;;;;;;;;;;4962333;28;20201;-72
2022/05/06 07:53:26;;;;;;;0.00;0.00;;;;;;;;;;4960570;28;20225;-71
2022/05/06 07:55:53;;;;;;;0.00;0.00;;;;;;;;;;4962950;28;20260;-72
2022/05/06 07:58:20;;;;;;;0.00;0.00;;;22.20;99.90;;;;;;4965215;28;20196;-72
2022/05/06 08:00:50;;;;;;;0.00;0.00;;;22.10;99.90;;;;;;4958411;28;20340;-72
2022/05/06 08:06:04;;;;;;;0.00;0.00;;;22.10;99.90;;;;;;4974684;28;20226;-72
2022/05/06 08:08:31;;;;;;;0.00;0.00;;;22.20;99.90;;;;;;4962276;28;20202;-72
2022/05/06 08:10:59;;;;;;;0.00;0.00;;;22.20;99.90;;;;;;4968403;28;20233;-73
2022/05/06 08:13:26;;;;;;;0.00;0.00;;;22.30;99.90;;;;;;4961132;28;20221;-73
2022/05/06 08:15:55;;;;;;;0.00;0.00;;;22.30;99.90;;;;;;4967131;28;20197;-72
2022/05/06 08:18:22;;;;;;;0.00;0.00;;;22.50;99.90;;;;;;4960915;28;20213;-74
2022/05/06 08:20:49;;;;;;;0.00;0.00;;;22.60;99.90;;;;;;4964173;28;20284;-73
2022/05/06 08:23:17;;;;;;;0.00;0.00;;;22.80;99.90;;;;;;4978445;28;20566;-72
2022/05/06 08:25:45;;;;;;;0.00;0.00;;;22.90;99.90;;;;;;4964959;28;20259;-73
2022/05/06 08:28:13;;;;;;;0.00;0.00;;;22.90;99.90;;;;;;4956623;28;20237;-72
2022/05/06 08:30:41;;;;;;;0.00;0.00;;;24.00;99.90;;;;;;4981253;28;20204;-72
2022/05/06 08:33:08;;;;;;;0.00;0.00;;;23.10;99.90;;;;;;4977495;28;20230;-72
2022/05/06 08:35:35;;;;;;;0.00;0.00;;;;;;;;;;4976803;28;20276;-73
2022/05/06 08:38:03;;;;;;;0.00;0.00;;;;;;;;;;4961014;28;20198;-73
2022/05/06 08:40:32;;;;;;;0.00;0.00;;;;;;;;;;4962472;28;20202;-72
2022/05/06 08:42:59;;;;;;;0.00;0.00;;;;;;;;;;4980393;28;20244;-72
2022/05/06 08:50:58;;;;;;;0.00;0.00;;;;;;;;;;4960124;28;20204;-73
2022/05/06 08:53:26;;;;;;;0.00;0.00;;;;;;;;;;4974975;28;20220;-73
2022/05/06 08:55:56;;;;;;;0.00;0.00;;;;;;;;;;4960680;28;20198;-72
2022/05/06 08:58:23;;;;;;;0.00;0.00;;;;;;;;;;4977968;28;20300;-72
2022/05/06 09:00:51;;;;;;;0.00;0.00;;;;;;;;;;4959126;28;20233;-72
2022/05/06 09:03:19;;;;;;;0.00;0.00;;;;;;;;;;4956594;28;20233;-73
2022/05/06 09:05:50;;;;;;;0.00;0.00;;;;;;;;;;4974797;28;20280;-73
2022/05/06 09:08:17;;;;;;;0.00;0.00;;;;;;;;;;4957079;28;20301;-72
2022/05/06 09:10:59;;;;;;;0.00;0.00;;;;;;;;;;4958291;28;20256;-73
2022/05/06 09:13:27;;;;;;;0.00;0.00;;;;;;;;;;4961927;28;20240;-74
2022/05/06 09:19:09;;;;;;;0.00;0.00;;;;;;;;;;4957026;28;20200;-73
2022/05/06 09:21:37;;;;;;;0.00;0.00;;;;;;;;;;4953271;28;20208;-73
2022/05/06 09:24:16;;;;;;;0.00;0.00;;;;;;;;;;4955418;28;20226;-73
2022/05/06 09:26:56;;;;;;;0.00;0.00;;;;;;;;;;4953690;28;20198;-71
2022/05/06 09:29:29;;;;;;;0.00;0.00;;;;;;;;;;4960557;28;20209;-73
2022/05/06 09:31:57;;;;;;;0.00;0.00;;;;;;;;;;4972640;28;20222;-72
2022/05/06 09:34:29;;;;;;;0.00;0.00;;;;;;;;;;4961689;28;20236;-72
2022/05/06 09:36:56;;;;;;;0.00;0.00;;;;;;;;;;4973847;28;20205;-72
2022/05/06 09:39:24;;;;;;;0.00;0.00;;;;;;;;;;4960259;28;20193;-72
2022/05/06 09:42:02;;;;;;;0.00;0.00;;;;;;;;;;4964438;28;20296;-72
2022/05/06 09:44:31;;;;;;;0.00;0.00;;;;;;;;;;4956209;28;20311;-72
2022/05/06 09:47:15;;;;;;;0.00;0.00;;;;;;;;;;4974193;28;20201;-72
2022/05/06 09:49:43;;;;;;;0.00;0.00;;;;;;;;;;4961620;28;20201;-72
2022/05/06 09:52:11;;;;;;;0.00;0.00;;;;;;;;;;4979009;28;20198;-73
2022/05/06 09:54:38;;;;;;;0.00;0.00;;;;;;;;;;4972171;28;20236;-72
2022/05/06 09:57:06;;;;;;;0.00;0.00;;;;;;;;;;4978611;28;20209;-73
2022/05/06 09:59:35;;;;;;;0.00;0.00;;;;;;;;;;4955328;28;20240;-72
2022/05/06 10:02:04;;;;;;;0.00;0.00;;;;;;;;;;4955433;28;20288;-72
2022/05/06 10:04:31;;;;;;;0.00;0.00;;;;;;;;;;4962703;28;20225;-72
2022/05/06 10:07:00;;;;;;;0.00;0.00;;;;;;;;;;4961477;28;20210;-73
2022/05/06 10:09:29;;;;;;;0.00;0.00;;;;;;;;;;4976692;28;20205;-73
2022/05/06 10:11:59;;;;;;;0.00;0.00;;;;;;;;;;4964537;28;20208;-72
2022/05/06 10:14:27;;;;;;;0.00;0.00;;;;;;;;;;4982012;28;20307;-73
2022/05/06 10:16:56;;;;;;;0.00;0.00;;;;;;;;;;4961744;28;20218;-73
2022/05/06 10:19:27;;;;;;;0.00;0.00;;;;;;;;;;4961330;28;20259;-73
2022/05/06 10:21:56;;;;;;;0.00;0.00;;;;;;;;;;4965264;28;20205;-73
2022/05/06 10:24:24;;;;;;;0.00;0.00;;;;;;;;;;4955242;28;20267;-72
2022/05/06 10:26:52;;;;;;;0.00;0.00;;;;;;;;;;4970919;28;20209;-72
2022/05/06 10:32:26;;;;;;;0.00;0.00;;;;;;;;;;4954562;28;20238;-72
2022/05/06 10:35:15;;;;;;;0.00;0.00;;;;;;;;;;4958995;28;20230;-73
2022/05/06 10:37:44;;;;;;;0.00;0.00;;;;;;;;;;4973194;28;20201;-72
2022/05/06 10:40:29;;;;;;;0.00;0.00;;;;;;;;;;4959040;28;20266;-72
2022/05/06 10:42:57;;;;;;;0.00;0.00;;;;;;;;;;4977038;28;20205;-74
2022/05/06 10:45:25;;;;;;;0.00;0.00;;;;;;;;;;4955554;28;20232;-72
2022/05/06 10:47:54;;;;;;;0.00;0.00;;;;;;;;;;4958256;28;20211;-72
2022/05/06 10:50:24;;;;;;;0.00;0.00;;;;;;;;;;4953447;28;20221;-72
2022/05/06 10:52:52;;;;;;;0.00;0.00;;;;;;;;;;4978136;28;20197;-73
2022/05/06 10:55:20;;;;;;;0.00;0.00;;;;;;;;;;4977362;28;20326;-72
2022/05/06 10:57:49;;;;;;;0.00;0.00;;;;;;;;;;4975448;28;20205;-73
2022/05/06 11:00:17;;;;;;;0.00;0.00;;;;;;;;;;4972376;28;20214;-72
2022/05/06 11:02:44;;;;;;;0.00;0.00;;;;;;;;;;4981192;28;20225;-73
2022/05/06 11:05:14;;;;;;;0.00;0.00;;;;;;;;;;4959616;28;20214;-73
2022/05/06 11:07:42;;;;;;;0.00;0.00;;;;;;;;;;4974231;28;20305;-74
2022/05/06 11:10:10;;;;;;;0.00;0.00;;;;;;;;;;4958568;28;20670;-72
2022/05/06 11:12:40;;;;;;;0.00;0.00;;;;;;;;;;4958490;28;20201;-72
2022/05/06 11:15:08;;;;;;;0.00;0.00;;;;;;;;;;4965701;28;20281;-72
2022/05/06 11:17:36;;;;;;;0.00;0.00;;;;;;;;;;4963326;28;20209;-72
2022/05/06 11:20:05;;;;;;;0.00;0.00;;;;;;;;;;4961916;28;20205;-74
2022/05/06 11:22:36;;;;;;;0.00;0.00;;;;;;;;;;4964214;28;20284;-73
2022/05/06 11:25:03;;;;;;;0.00;0.00;;;;;;;;;;4972982;28;20263;-73
2022/05/06 11:27:31;;;;;;;0.00;0.00;;;;;;;;;;4961738;28;20208;-73
2022/05/06 11:29:59;;;;;;;0.00;0.00;;;;;;;;;;4984153;28;20268;-72
2022/05/06 11:32:28;;;;;;;0.00;0.00;;;;;;;;;;4974646;28;20197;-73
2022/05/06 11:34:57;;;;;;;0.00;0.00;;;;;;;;;;4981322;28;20322;-73
2022/05/06 11:37:24;;;;;;;0.00;0.00;;;;;;;;;;4965687;28;20197;-72
2022/05/06 11:40:18;;;;;;;0.00;0.00;;;;;;;;;;4962916;28;20294;-72
2022/05/06 11:42:42;;;;;;;0.00;0.00;;;;;;;;;;4963080;28;20201;-72
2022/05/06 11:48:05;;;;;;;0.00;0.00;;;;;;;;;;4958021;28;20201;-73
2022/05/06 11:50:33;;;;;;;0.00;0.00;;;;;;;;;;4961693;28;20232;-74
2022/05/06 11:53:01;;;;;;;0.00;0.00;;;;;;;;;;4964501;28;20206;-72
2022/05/06 11:55:30;;;;;;;0.00;0.00;;;;;;;;;;4964417;28;20242;-73
2022/05/06 11:57:58;;;;;;;0.00;0.00;;;;;;;;;;4958412;28;20209;-73
2022/05/06 12:00:26;;;;;;;0.00;0.00;;;;;;;;;;4973569;28;20252;-72
2022/05/06 12:02:54;;;;;;;0.00;0.00;;;;;;;;;;4980758;28;20209;-73
2022/05/06 12:05:23;;;;;;;0.00;0.00;;;;;;;;;;4966861;28;20229;-72
2022/05/06 12:07:50;;;;;;;0.00;0.00;;;;;;;;;;4971805;28;20217;-72
2022/05/06 12:10:25;;;;;;;0.00;0.00;;;;;;;;;;4976382;28;20210;-73
2022/05/06 12:12:54;;;;;;;0.00;0.00;;;;;;;;;;4961796;28;20686;-72
2022/05/06 12:15:28;;;;;;;0.00;0.00;;;;;;;;;;4965145;28;20343;-72
2022/05/06 12:18:01;;;;;;;0.00;0.00;;;;;;;;;;4964399;28;20361;-72
2022/05/06 12:20:33;;;;;;;0.00;0.00;;;;;;;;;;4959934;28;20205;-73
2022/05/06 12:23:01;;;;;;;0.00;0.00;;;;;;;;;;4961797;28;20213;-73
2022/05/06 12:25:28;;;;;;;0.00;0.00;;;;;;;;;;4959768;28;20225;-73
2022/05/06 12:28:08;;;;;;;0.00;0.00;;;;;;;;;;4962243;28;20206;-73
2022/05/06 12:30:36;;;;;;;0.00;0.00;;;;;;;;;;4978163;28;20201;-72
2022/05/06 12:33:07;;;;;;;0.00;0.00;;;;;;;;;;4952799;28;20212;-72
2022/05/06 12:35:49;;;;;;;0.00;0.00;;;;;;;;;;4965205;28;20283;-73
2022/05/06 12:38:17;;;;;;;0.00;0.00;;;;;;;;;;4977511;28;20271;-72
2022/05/06 12:40:44;;;;;;;0.00;0.00;;;;;;;;;;4974207;28;20237;-72
2022/05/06 12:43:13;;;;;;;0.00;0.00;;;;;;;;;;4980123;28;20240;-73
2022/05/06 12:45:52;;;;;;;0.00;0.00;;;;;;;;;;4963159;28;20236;-72
2022/05/06 12:51:13;;;;;;;0.00;0.00;;;;;;;;;;4913770;28;20227;-71
2022/05/06 12:53:40;;;;;;;0.00;0.00;;;;;;;;;;4958144;28;20295;-72
2022/05/06 12:56:18;;;;;;;0.00;0.00;;;;;;;;;;4954629;28;20241;-72
2022/05/06 12:58:46;;;;;;;0.00;0.00;;;;;;;;;;4971533;28;20206;-73
2022/05/06 13:01:14;;;;;;;0.00;0.00;;;;;;;;;;4956173;28;20206;-72
2022/05/06 13:03:42;;;;;;;0.00;0.00;;;;;;;;;;4972252;28;20216;-73
2022/05/06 13:06:10;;;;;;;0.00;0.00;;;;;;;;;;4956030;28;20237;-73
2022/05/06 13:08:37;;;;;;;0.00;0.00;;;;;;;;;;4971846;28;20209;-71
2022/05/06 13:11:05;;;;;;;0.00;0.00;;;;;;;;;;4954977;28;20205;-73
2022/05/06 13:13:32;;;;;;;0.00;0.00;;;;;;;;;;4954678;28;20287;-72
2022/05/06 13:16:01;;;;;;;0.00;0.00;;;;;;;;;;4950025;28;20198;-73
2022/05/06 13:18:30;;;;;;;0.00;0.00;;;;;;;;;;4951010;28;20292;-73
2022/05/06 13:20:57;;;;;;;0.00;0.00;;;;;;;;;;4948770;28;20212;-72
2022/05/06 13:23:25;;;;;;;0.00;0.00;;;;;;;;;;4960452;28;20216;-71
2022/05/06 13:25:52;;;;;;;0.00;0.00;;;;;;;;;;4954451;28;20217;-72
2022/05/06 13:28:20;;;;;;;0.00;0.00;;;;;;;;;;4972916;28;20210;-75
2022/05/06 13:30:48;;;;;;;0.00;0.00;;;;;;;;;;4958448;28;20209;-75
2022/05/06 13:33:18;;;;;;;0.00;0.00;;;;;;;;;;4969510;28;20217;-73
2022/05/06 13:35:45;;;;;;;0.00;0.00;;;;;;;;;;4960099;28;20228;-76
2022/05/06 13:38:12;;;;;;;0.00;0.00;;;;;;;;;;4954977;28;20210;-74
2022/05/06 13:40:39;;;;;;;0.00;0.00;;;;;;;;;;4976299;28;20260;-74
2022/05/06 13:43:07;;;;;;;0.00;0.00;;;;;;;;;;4957559;28;20202;-74
2022/05/06 13:45:34;;;;;;;0.00;0.00;;;;;;;;;;4951290;28;20296;-74
2022/05/06 13:48:02;;;;;;;0.00;0.00;;;;;;;;;;4967079;28;20206;-73
2022/05/06 13:50:31;;;;;;;0.00;0.00;;;;;;;;;;4963128;28;20213;-73
2022/05/06 13:52:58;;;;;;;0.00;0.00;;;;;;;;;;4954977;28;20212;-76
2022/05/06 13:59:03;;;;;;;0.00;0.00;;;;;;;;;;4975020;28;20225;-74
2022/05/06 14:00:59;;;;;;;0.00;0.00;;;;;;;;;;4951418;28;20579;-72
2022/05/06 14:03:26;;;;;;;0.00;0.00;;;;;;;;;;4957792;28;20209;-73
2022/05/06 14:05:55;;;;;;;0.00;0.00;;;;;;;;;;4964408;28;20209;-73
2022/05/06 14:08:22;;;;;;;0.00;0.00;;;;;;;;;;4953696;28;20718;-74
2022/05/06 14:10:50;;;;;;;0.00;0.00;;;;;;;;;;4955839;28;20269;-73
2022/05/06 14:13:17;;;;;;;0.00;0.00;;;;;;;;;;4959166;28;20209;-73
2022/05/06 14:15:45;;;;;;;0.00;0.00;;;;;;;;;;4960763;28;20218;-74
2022/05/06 14:18:12;;;;;;;0.00;0.00;;;;;;;;;;4973813;28;20261;-74
2022/05/06 14:20:39;;;;;;;0.00;0.00;;;;;;;;;;4960931;28;20209;-74
2022/05/06 14:23:08;;;;;;;0.00;0.00;;;;;;;;;;4953032;28;20201;-73
2022/05/06 14:25:37;;;;;;;0.00;0.00;;;;;;;;;;4951452;28;20217;-73
2022/05/06 14:28:04;;;;;;;0.00;0.00;;;;;;;;;;4966997;28;20280;-73
2022/05/06 14:30:32;;;;;;;0.00;0.00;;;;;;;;;;4956350;28;20209;-73
2022/05/06 14:33:00;;;;;;;0.00;0.00;;;;;;;;;;4970180;28;20233;-74
2022/05/06 14:35:28;;;;;;;0.00;0.00;;;;;;;;;;4958608;28;20320;-73
2022/05/06 14:37:57;;;;;;;0.00;0.00;;;;;;;;;;4972870;28;20202;-73
2022/05/06 14:40:26;;;;;;;0.00;0.00;;;;;;;;;;4953208;28;20291;-73
2022/05/06 14:42:53;;;;;;;0.00;0.00;;;;;;;;;;4957195;28;20209;-73
2022/05/06 14:45:20;;;;;;;0.00;0.00;;;;;;;;;;4955959;28;20642;-73
2022/05/06 14:47:49;;;;;;;0.00;0.00;;;;;;;;;;4955058;28;20217;-73
2022/05/06 14:50:16;;;;;;;0.00;0.00;;;;;;;;;;4955092;28;20291;-73
2022/05/06 14:52:45;;;;;;;0.00;0.00;;;;;;;;;;4960488;28;20205;-73
2022/05/06 14:55:12;;;;;;;0.00;0.00;;;;;;;;;;4952457;28;20229;-73
2022/05/06 14:57:41;;;;;;;0.00;0.00;;;;;;;;;;4977473;28;20208;-73
2022/05/06 15:00:09;;;;;;;0.00;0.00;;;;;;;;;;4960800;28;20256;-75
2022/05/06 15:02:37;;;;;;;0.00;0.00;;;;;;;;;;4964834;28;20202;-73
2022/05/06 15:05:05;;;;;;;0.00;0.00;;;;;;;;;;4959924;28;20218;-73
2022/05/06 15:07:32;;;;;;;0.00;0.00;;;;;;;;;;4956542;28;20209;-73
2022/05/06 15:10:00;;;;;;;0.00;0.00;;;;;;;;;;4976422;28;20227;-73
2022/05/06 15:12:27;;;;;;;0.00;0.00;;;;;;;;;;4977984;28;20288;-73
2022/05/06 15:14:56;;;;;;;0.00;0.00;;;;;;;;;;4961910;28;20296;-72
2022/05/06 15:17:24;;;;;;;0.00;0.00;;;;;;;;;;4965489;28;20208;-73
2022/05/06 15:19:51;;;;;;;0.00;0.00;;;;;;;;;;4962150;28;20213;-73
2022/05/06 15:22:19;;;;;;;0.00;0.00;;;;;;;;;;4965982;28;20204;-74
2022/05/06 15:24:47;;;;;;;0.00;0.00;;;;;;;;;;4961404;28;20214;-73
2022/05/06 15:27:15;;;;;;;0.00;0.00;;;;;;;;;;4962306;28;20296;-76
2022/05/06 15:29:43;;;;;;;0.00;0.00;;;;;;;;;;4968216;28;20264;-75